Time;durP1;ratioP1;P1;durP2;ratioP2;P2;SDS_P1;SDS_P2;PMS_P1;PMS_P2;Temp;Humidity;BMP_temperature;BMP_pressure;BME280_temperature;BME280_humidity;BME280_pressure;Samples;Min_cycle;Max_cycle;Signal;HPM_P1;HPM_P2
2022/02/21 00:00:12;;;;;;;1.80;0.85;;;9.10;94.90;;;;;;5091929;28;20694;-83
2022/02/21 00:02:43;;;;;;;1.75;0.75;;;9.00;93.40;;;;;;5101592;28;20193;-83
2022/02/21 00:05:11;;;;;;;2.58;1.10;;;9.00;93.40;;;;;;5102474;28;20242;-84
2022/02/21 00:07:38;;;;;;;2.35;0.98;;;9.00;93.50;;;;;;5092357;28;20226;-84
2022/02/21 00:10:05;;;;;;;0.95;0.70;;;9.00;93.30;;;;;;5094307;28;20230;-84
2022/02/21 00:12:32;;;;;;;0.98;0.90;;;9.00;93.20;;;;;;5108028;28;20274;-83
2022/02/21 00:14:59;;;;;;;0.80;0.80;;;9.00;93.20;;;;;;5091197;28;20226;-82
2022/02/21 00:17:36;;;;;;;1.80;0.88;;;9.10;93.00;;;;;;5090717;28;20730;-83
2022/02/21 00:20:04;;;;;;;2.47;1.00;;;9.10;93.10;;;;;;5101913;28;20202;-84
2022/02/21 00:22:34;;;;;;;6.00;1.00;;;9.20;92.80;;;;;;5103118;28;20198;-83
2022/02/21 00:25:00;;;;;;;1.55;0.85;;;9.30;93.70;;;;;;5092066;28;20238;-84
2022/02/21 00:27:27;;;;;;;1.63;0.88;;;9.20;92.60;;;;;;5090622;28;20199;-84
2022/02/21 00:29:54;;;;;;;3.80;1.25;;;9.30;92.80;;;;;;5100239;28;20568;-83
2022/02/21 00:32:21;;;;;;;4.27;0.90;;;9.20;92.40;;;;;;5096565;27;20795;-84
2022/02/21 00:34:52;;;;;;;4.72;1.30;;;9.30;92.10;;;;;;5100801;28;20711;-85
2022/02/21 00:37:21;;;;;;;3.43;0.77;;;9.20;92.40;;;;;;5089393;28;20234;-83
2022/02/21 00:39:48;;;;;;;3.07;0.90;;;9.10;96.10;;;;;;5083895;28;20720;-84
2022/02/21 00:42:16;;;;;;;3.03;0.90;;;10.10;92.10;;;;;;5093552;28;21054;-84
2022/02/21 00:44:47;;;;;;;3.60;1.37;;;9.30;92.40;;;;;;5107668;28;20613;-84
2022/02/21 00:47:14;;;;;;;0.98;0.90;;;9.30;92.70;;;;;;5108294;28;20612;-84
2022/02/21 00:49:41;;;;;;;2.40;0.90;;;9.80;95.00;;;;;;5088662;28;20194;-84
2022/02/21 00:52:09;;;;;;;1.83;1.10;;;9.20;93.60;;;;;;5100369;28;21432;-83
2022/02/21 00:54:36;;;;;;;1.25;1.02;;;9.00;94.20;;;;;;5093936;28;20632;-83
2022/02/21 00:57:05;;;;;;;3.65;1.80;;;8.90;94.60;;;;;;5107272;28;20274;-84
2022/02/21 00:59:32;;;;;;;1.33;1.10;;;9.00;99.90;;;;;;5089039;28;20197;-83
2022/02/21 01:01:59;;;;;;;1.52;1.10;;;8.80;95.50;;;;;;5091259;28;20282;-84
2022/02/21 01:04:28;;;;;;;3.28;1.40;;;9.20;96.50;;;;;;5103145;28;20224;-83
2022/02/21 01:07:06;;;;;;;3.58;1.33;;;8.80;95.50;;;;;;5097882;28;20245;-83
2022/02/21 01:09:43;;;;;;;3.03;1.08;;;8.80;95.60;;;;;;5087573;28;20207;-83
2022/02/21 01:12:12;;;;;;;0.80;0.80;;;8.80;95.50;;;;;;5070743;28;20234;-84
2022/02/21 01:14:40;;;;;;;1.48;1.27;;;8.60;96.60;;;;;;5107100;28;20194;-84
2022/02/21 01:17:07;;;;;;;1.20;0.80;;;8.70;95.60;;;;;;5107730;28;20210;-83
2022/02/21 01:19:35;;;;;;;3.67;1.40;;;8.70;96.00;;;;;;5093156;28;20248;-84
2022/02/21 01:22:10;;;;;;;1.83;1.08;;;8.70;96.00;;;;;;5098462;28;20991;-83
2022/02/21 01:24:40;;;;;;;2.15;1.98;;;8.60;96.10;;;;;;5088595;28;20201;-83
2022/02/21 01:27:14;;;;;;;2.10;1.02;;;8.60;96.10;;;;;;5104854;28;20223;-83
2022/02/21 01:29:42;;;;;;;0.80;0.80;;;8.60;96.00;;;;;;5096568;28;20286;-84
2022/02/21 01:32:12;;;;;;;1.23;0.90;;;8.60;95.90;;;;;;5098203;28;20244;-83
2022/02/21 01:35:00;;;;;;;0.98;0.88;;;8.50;96.80;;;;;;5079921;27;20846;-82
2022/02/21 01:37:27;;;;;;;3.97;1.52;;;8.60;96.30;;;;;;5084153;28;20673;-83
2022/02/21 01:39:54;;;;;;;3.75;0.90;;;8.60;96.30;;;;;;5084844;28;20758;-84
2022/02/21 01:42:21;;;;;;;1.85;1.05;;;8.60;96.10;;;;;;5084568;28;20194;-83
2022/02/21 01:44:49;;;;;;;1.05;0.60;;;8.60;96.10;;;;;;5080671;28;20203;-83
2022/02/21 01:47:19;;;;;;;3.20;1.52;;;8.60;96.00;;;;;;5084448;28;20283;-84
2022/02/21 01:49:46;;;;;;;1.30;0.98;;;8.60;96.00;;;;;;5084837;28;20195;-83
2022/02/21 01:52:17;;;;;;;0.90;0.90;;;8.70;96.00;;;;;;5083953;28;20225;-81
2022/02/21 01:54:44;;;;;;;3.03;0.90;;;8.70;95.90;;;;;;5084901;28;20212;-82
2022/02/21 01:57:11;;;;;;;0.88;0.75;;;8.70;95.80;;;;;;5083041;28;20554;-83
2022/02/21 01:59:40;;;;;;;2.60;1.27;;;8.70;95.70;;;;;;5084484;28;20928;-84
2022/02/21 02:02:08;;;;;;;1.40;0.80;;;8.70;95.70;;;;;;5068402;28;20557;-83
2022/02/21 02:04:36;;;;;;;1.67;1.00;;;8.70;95.60;;;;;;5083520;28;20192;-83
2022/02/21 02:07:04;;;;;;;1.20;1.00;;;8.80;95.60;;;;;;5084384;28;20283;-82
2022/02/21 02:09:34;;;;;;;2.88;0.80;;;8.80;95.40;;;;;;5084073;28;20192;-82
2022/02/21 02:12:02;;;;;;;1.35;0.63;;;8.80;95.50;;;;;;5085106;28;20550;-83
2022/02/21 02:14:31;;;;;;;1.10;0.60;;;8.70;95.10;;;;;;5083577;28;20237;-84
2022/02/21 02:17:02;;;;;;;1.15;1.00;;;8.70;95.20;;;;;;5083449;28;20250;-84
2022/02/21 02:19:29;;;;;;;1.10;1.00;;;8.70;95.20;;;;;;5084157;28;20203;-83
2022/02/21 02:21:57;;;;;;;0.60;0.60;;;8.70;95.20;;;;;;5083870;28;20234;-83
2022/02/21 02:24:26;;;;;;;1.77;1.00;;;8.80;95.10;;;;;;5084461;28;20201;-83
2022/02/21 02:26:55;;;;;;;1.40;0.80;;;8.80;95.20;;;;;;5084375;28;20199;-83
2022/02/21 02:29:23;;;;;;;0.80;0.80;;;8.80;95.20;;;;;;5076877;28;20227;-84
2022/02/21 02:31:51;;;;;;;0.82;0.80;;;8.80;95.20;;;;;;5083976;28;20294;-83
2022/02/21 02:34:18;;;;;;;0.70;0.50;;;8.70;95.20;;;;;;5083497;28;20228;-84
2022/02/21 02:36:48;;;;;;;0.80;0.68;;;8.80;95.40;;;;;;5083565;28;20682;-83
2022/02/21 02:39:16;;;;;;;1.58;0.82;;;8.70;95.40;;;;;;5083818;28;20329;-84
2022/02/21 02:41:45;;;;;;;1.85;0.70;;;8.70;96.00;;;;;;5083593;28;20637;-83
2022/02/21 02:44:13;;;;;;;1.55;0.65;;;8.60;98.20;;;;;;5064402;28;20232;-84
2022/02/21 02:46:39;;;;;;;2.67;0.98;;;8.50;97.00;;;;;;5056603;28;20235;-83
2022/02/21 02:49:06;;;;;;;4.55;1.00;;;8.50;97.60;;;;;;5069929;28;20223;-83
2022/02/21 02:51:38;;;;;;;1.67;1.05;;;8.40;98.40;;;;;;5070974;28;20545;-83
2022/02/21 02:54:06;;;;;;;0.85;0.85;;;8.40;99.50;;;;;;5071097;28;20249;-82
2022/02/21 02:56:33;;;;;;;0.63;0.63;;;8.20;99.10;;;;;;5069407;28;20203;-83
2022/02/21 02:59:02;;;;;;;1.92;0.75;;;8.20;99.20;;;;;;5060227;28;20201;-82
2022/02/21 03:01:28;;;;;;;1.08;0.85;;;8.20;98.90;;;;;;5065700;28;20613;-83
2022/02/21 03:03:55;;;;;;;0.80;0.80;;;8.20;98.90;;;;;;5059070;28;20203;-83
2022/02/21 03:06:23;;;;;;;1.13;0.90;;;8.20;98.60;;;;;;5068982;28;21024;-81
2022/02/21 03:08:50;;;;;;;0.70;0.50;;;8.30;98.40;;;;;;5069730;28;20191;-82
2022/02/21 03:11:17;;;;;;;1.17;0.80;;;8.30;98.00;;;;;;5069191;28;20195;-82
2022/02/21 03:13:44;;;;;;;0.70;0.65;;;8.20;99.30;;;;;;5069679;28;20233;-82
2022/02/21 03:16:12;;;;;;;1.40;0.80;;;8.20;98.30;;;;;;5067924;28;20282;-81
2022/02/21 03:18:39;;;;;;;8.95;0.93;;;8.40;98.40;;;;;;5069296;28;20603;-83
2022/02/21 03:21:12;;;;;;;1.00;0.93;;;8.40;96.90;;;;;;5069642;28;20219;-82
2022/02/21 03:23:44;;;;;;;0.73;0.35;;;8.40;98.00;;;;;;5053159;28;20269;-83
2022/02/21 03:26:11;;;;;;;0.52;0.52;;;8.40;98.00;;;;;;5052051;28;20195;-82
2022/02/21 03:28:37;;;;;;;1.30;0.88;;;8.40;96.60;;;;;;5069688;28;20275;-84
2022/02/21 03:31:08;;;;;;;1.38;0.55;;;8.40;96.60;;;;;;5067888;28;20249;-83
2022/02/21 03:33:36;;;;;;;1.20;0.85;;;8.50;96.80;;;;;;5069297;28;20230;-82
2022/02/21 03:36:04;;;;;;;0.50;0.50;;;8.50;99.30;;;;;;5069167;28;20208;-82
2022/02/21 03:38:30;;;;;;;1.65;0.68;;;8.40;98.00;;;;;;5068948;28;20752;-83
2022/02/21 03:40:57;;;;;;;1.88;0.77;;;8.10;99.90;;;;;;5068930;28;20249;-83
2022/02/21 03:43:26;;;;;;;1.27;0.63;;;8.10;99.90;;;;;;5069446;28;20231;-84
2022/02/21 03:45:56;;;;;;;1.00;0.90;;;8.00;99.90;;;;;;5069218;28;20198;-83
2022/02/21 03:48:23;;;;;;;1.75;0.45;;;7.80;99.90;;;;;;5067681;28;20247;-85
2022/02/21 03:50:51;;;;;;;0.30;0.20;;;7.40;99.90;;;;;;5067572;28;20542;-85
2022/02/21 03:53:18;;;;;;;0.85;0.40;;;6.00;99.90;;;;;;5069459;28;20207;-85
2022/02/21 03:55:46;;;;;;;0.52;0.50;;;4.80;99.90;;;;;;5069090;28;20196;-83
2022/02/21 03:58:13;;;;;;;0.63;0.40;;;4.40;99.90;;;;;;5068428;28;20620;-84
2022/02/21 04:00:40;;;;;;;0.30;0.20;;;4.10;99.90;;;;;;5069012;28;20223;-84
2022/02/21 04:03:07;;;;;;;0.30;0.25;;;4.00;99.90;;;;;;5068220;28;20196;-84
2022/02/21 04:05:34;;;;;;;0.30;0.30;;;3.50;99.90;;;;;;5053807;28;20196;-84
2022/02/21 04:08:06;;;;;;;0.40;0.40;;;3.20;99.90;;;;;;5065404;28;20264;-84
2022/02/21 04:10:34;;;;;;;3.45;0.60;;;3.00;99.90;;;;;;5066683;28;20274;-84
2022/02/21 04:13:01;;;;;;;0.82;0.82;;;;;;;;;;5068356;28;20199;-85
2022/02/21 04:15:31;;;;;;;2.88;0.70;;;3.10;99.90;;;;;;5069008;28;20219;-85
2022/02/21 04:17:58;;;;;;;0.63;0.50;;;2.80;99.90;;;;;;5061694;28;20223;-84
2022/02/21 04:20:27;;;;;;;0.75;0.52;;;2.70;99.90;;;;;;5046309;28;20709;-84
2022/02/21 04:22:57;;;;;;;1.80;0.50;;;2.90;99.90;;;;;;5064437;28;20191;-84
2022/02/21 04:25:25;;;;;;;0.65;0.65;;;2.60;99.90;;;;;;5068522;28;20329;-83
2022/02/21 04:27:54;;;;;;;1.48;0.68;;;2.40;99.90;;;;;;5068637;28;20223;-84
2022/02/21 04:30:22;;;;;;;1.67;0.70;;;2.40;99.90;;;;;;5067543;28;20210;-83
2022/02/21 04:32:50;;;;;;;1.95;0.60;;;1.50;99.90;;;;;;5067506;28;20535;-83
2022/02/21 04:35:20;;;;;;;0.82;0.73;;;1.90;99.90;;;;;;5067916;28;20227;-82
2022/02/21 04:37:47;;;;;;;0.40;0.38;;;;;;;;;;5067344;28;20245;-85
2022/02/21 04:40:20;;;;;;;1.35;1.05;;;2.50;99.90;;;;;;5062059;28;20196;-83
2022/02/21 04:42:52;;;;;;;1.15;0.73;;;2.40;99.90;;;;;;5056593;28;20278;-84
2022/02/21 04:45:20;;;;;;;2.22;0.80;;;;;;;;;;5068605;28;20198;-83
2022/02/21 04:47:49;;;;;;;4.90;1.30;;;;;;;;;;5067240;28;20208;-84
2022/02/21 04:50:17;;;;;;;1.67;0.80;;;2.40;99.90;;;;;;5051254;28;20729;-82
2022/02/21 04:52:44;;;;;;;1.88;1.10;;;;;;;;;;5067491;28;20619;-83
2022/02/21 04:55:14;;;;;;;1.27;0.88;;;2.50;99.90;;;;;;5067691;28;20253;-83
2022/02/21 04:57:42;;;;;;;2.13;0.95;;;2.50;99.90;;;;;;5067374;28;20229;-83
2022/02/21 05:00:15;;;;;;;1.60;0.90;;;2.50;99.90;;;;;;5068402;28;20621;-83
2022/02/21 05:02:44;;;;;;;0.90;0.77;;;;;;;;;;5067533;28;20306;-84
2022/02/21 05:05:12;;;;;;;3.30;1.60;;;2.60;99.90;;;;;;5062642;28;20196;-85
2022/02/21 05:07:40;;;;;;;2.22;1.23;;;2.50;99.90;;;;;;5059221;28;20276;-85
2022/02/21 05:10:08;;;;;;;1.60;1.05;;;2.60;99.90;;;;;;5067205;28;20772;-85
2022/02/21 05:12:35;;;;;;;1.13;1.02;;;;;;;;;;5067319;28;20993;-85
2022/02/21 05:15:03;;;;;;;1.02;1.02;;;;;;;;;;5060848;28;20237;-85
2022/02/21 05:17:31;;;;;;;2.10;1.02;;;2.80;99.90;;;;;;5066886;28;20199;-84
2022/02/21 05:19:58;;;;;;;2.65;1.70;;;2.80;99.90;;;;;;5067085;28;20245;-84
2022/02/21 05:22:29;;;;;;;2.10;0.90;;;;;;;;;;5066573;28;20206;-85
2022/02/21 05:24:55;;;;;;;2.60;2.30;;;2.90;99.90;;;;;;5067811;28;20251;-85
2022/02/21 05:27:22;;;;;;;7.57;1.85;;;3.00;99.90;;;;;;5068078;28;20184;-85
2022/02/21 05:29:50;;;;;;;3.35;1.00;;;;;;;;;;5067417;28;20274;-86
2022/02/21 05:32:16;;;;;;;5.07;1.48;;;2.50;99.90;;;;;;5067426;28;20195;-85
2022/02/21 05:34:46;;;;;;;3.90;1.42;;;3.60;99.90;;;;;;5066897;28;20254;-86
2022/02/21 05:37:13;;;;;;;2.97;1.35;;;;;;;;;;5067069;28;20522;-85
2022/02/21 05:39:40;;;;;;;2.35;1.25;;;;;;;;;;5059971;28;20282;-85
2022/02/21 05:42:07;;;;;;;3.35;1.38;;;;;;;;;;5067221;28;20282;-85
2022/02/21 05:44:35;;;;;;;6.60;1.90;;;;;;;;;;5067432;28;20195;-85
2022/02/21 05:47:02;;;;;;;7.03;1.88;;;;;;;;;;5067477;28;20282;-84
2022/02/21 05:49:29;;;;;;;3.35;1.60;;;3.50;99.90;;;;;;5066879;28;20603;-85
2022/02/21 05:51:57;;;;;;;3.85;1.50;;;3.30;99.90;;;;;;5067487;28;20282;-86
2022/02/21 05:54:24;;;;;;;3.22;1.70;;;;;;;;;;5066084;28;20335;-85
2022/02/21 05:56:51;;;;;;;5.30;1.65;;;3.90;99.90;;;;;;5053089;28;20207;-85
2022/02/21 05:59:18;;;;;;;8.70;1.83;;;3.50;99.90;;;;;;5063484;28;20278;-85
2022/02/21 06:01:45;;;;;;;4.53;1.50;;;3.50;99.90;;;;;;5066656;28;20817;-85
2022/02/21 06:04:12;;;;;;;6.70;1.52;;;3.30;99.90;;;;;;5066178;28;20230;-85
2022/02/21 06:06:39;;;;;;;5.47;1.77;;;3.70;99.90;;;;;;5066712;28;20196;-86
2022/02/21 06:09:08;;;;;;;6.22;1.98;;;3.50;99.90;;;;;;5062712;28;20223;-85
2022/02/21 06:11:35;;;;;;;5.40;2.03;;;3.60;99.90;;;;;;5066260;28;20203;-85
2022/02/21 06:14:02;;;;;;;3.92;1.70;;;3.60;99.90;;;;;;5065940;28;20302;-85
2022/02/21 06:16:29;;;;;;;4.00;1.70;;;4.00;99.90;;;;;;5066397;28;20187;-85
2022/02/21 06:18:56;;;;;;;2.78;1.33;;;;;;;;;;5066233;28;20207;-85
2022/02/21 06:21:23;;;;;;;4.47;1.90;;;3.50;99.90;;;;;;5069424;28;20282;-86
2022/02/21 06:23:51;;;;;;;4.97;1.65;;;;;;;;;;5070335;28;20264;-86
2022/02/21 06:26:19;;;;;;;6.40;1.73;;;;;;;;;;5070810;28;20227;-85
2022/02/21 06:28:47;;;;;;;5.90;2.58;;;;;;;;;;5071100;28;20203;-85
2022/02/21 06:31:14;;;;;;;3.00;1.95;;;3.70;99.90;;;;;;5059653;28;20207;-86
2022/02/21 06:33:41;;;;;;;3.85;1.95;;;;;;;;;;5050917;28;20270;-86
2022/02/21 06:36:08;;;;;;;2.10;1.88;;;;;;;;;;5069096;28;20265;-86
2022/02/21 06:38:37;;;;;;;6.50;2.20;;;3.70;99.70;;;;;;5068945;28;20618;-85
2022/02/21 06:41:05;;;;;;;4.53;1.40;;;;;;;;;;5070317;28;20212;-85
2022/02/21 06:43:33;;;;;;;1.70;1.45;;;;;;;;;;5070651;28;20206;-85
2022/02/21 06:46:00;;;;;;;10.45;2.20;;;;;;;;;;5070074;28;20227;-85
2022/02/21 06:48:27;;;;;;;5.68;1.50;;;;;;;;;;5070108;28;20294;-85
2022/02/21 06:50:55;;;;;;;5.30;2.50;;;4.10;99.90;;;;;;5048844;28;20816;-85
2022/02/21 06:53:22;;;;;;;3.10;1.73;;;3.90;99.90;;;;;;5061884;28;20299;-86
2022/02/21 06:55:49;;;;;;;4.10;1.25;;;3.70;99.90;;;;;;5069940;28;20280;-85
2022/02/21 06:58:16;;;;;;;5.20;1.48;;;;;;;;;;5069559;28;20704;-86
2022/02/21 07:00:45;;;;;;;4.00;1.60;;;3.00;99.90;;;;;;5062259;28;20245;-85
2022/02/21 07:03:20;;;;;;;1.42;0.85;;;3.80;97.70;;;;;;5065648;28;20923;-85
2022/02/21 07:05:47;;;;;;;3.05;1.50;;;;;;;;;;5068550;28;20284;-85
2022/02/21 07:08:14;;;;;;;5.45;1.40;;;3.70;99.90;;;;;;5059760;28;20280;-85
2022/02/21 07:10:41;;;;;;;6.43;0.90;;;;;;;;;;5062135;28;20200;-85
2022/02/21 07:13:08;;;;;;;4.40;1.35;;;3.50;99.90;;;;;;5069411;28;20211;-85
2022/02/21 07:15:36;;;;;;;6.00;1.35;;;;;;;;;;5069259;28;20284;-86
2022/02/21 07:18:04;;;;;;;3.00;1.88;;;3.40;94.20;;;;;;5069931;28;20199;-86
2022/02/21 07:20:31;;;;;;;5.82;1.80;;;3.40;99.90;;;;;;5069747;28;20203;-86
2022/02/21 07:22:58;;;;;;;1.98;1.15;;;3.40;94.40;;;;;;5070048;28;20203;-85
2022/02/21 07:25:25;;;;;;;3.75;1.27;;;3.50;94.50;;;;;;5065773;28;20199;-86
2022/02/21 07:27:53;;;;;;;5.47;1.10;;;3.50;94.30;;;;;;5063922;28;20224;-85
2022/02/21 07:30:24;;;;;;;3.47;1.13;;;3.70;99.60;;;;;;5063911;28;20286;-86
2022/02/21 07:32:51;;;;;;;2.35;1.30;;;3.60;93.70;;;;;;5069952;28;20272;-86
2022/02/21 07:35:20;;;;;;;1.50;1.40;;;3.70;95.40;;;;;;5069741;28;20281;-85
2022/02/21 07:37:47;;;;;;;8.50;1.45;;;;;;;;;;5070191;28;20268;-85
2022/02/21 07:40:15;;;;;;;1.25;1.08;;;4.00;93.80;;;;;;5066028;28;20262;-85
2022/02/21 07:42:49;;;;;;;6.20;1.50;;;3.80;93.20;;;;;;5069391;28;20212;-85
2022/02/21 07:45:16;;;;;;;5.90;1.95;;;3.80;99.90;;;;;;5068864;28;20199;-85
2022/02/21 07:47:44;;;;;;;4.45;2.25;;;3.80;92.60;;;;;;5069567;28;20203;-85
2022/02/21 07:50:12;;;;;;;5.65;1.58;;;;;;;;;;5068807;28;20257;-85
2022/02/21 07:52:40;;;;;;;3.33;1.05;;;3.90;92.70;;;;;;5067418;28;20326;-85
2022/02/21 07:55:08;;;;;;;2.25;0.82;;;3.80;92.80;;;;;;5068784;28;20630;-85
2022/02/21 07:57:35;;;;;;;3.10;1.63;;;3.70;94.90;;;;;;5056798;28;20196;-85
2022/02/21 08:00:03;;;;;;;6.00;3.38;;;;;;;;;;5064734;28;20199;-85
2022/02/21 08:02:30;;;;;;;6.40;2.35;;;4.10;99.90;;;;;;5068759;28;20211;-85
2022/02/21 08:04:58;;;;;;;3.35;1.52;;;;;;;;;;5056550;28;20690;-85
2022/02/21 08:07:25;;;;;;;6.47;1.95;;;;;;;;;;5065873;28;20245;-85
2022/02/21 08:09:53;;;;;;;7.60;2.35;;;4.40;99.90;;;;;;5068693;28;20299;-85
2022/02/21 08:12:20;;;;;;;4.55;1.75;;;5.20;99.90;;;;;;5063415;28;20238;-85
2022/02/21 08:14:47;;;;;;;6.93;2.00;;;4.50;94.50;;;;;;5068209;28;20195;-85
2022/02/21 08:17:14;;;;;;;7.53;1.65;;;;;;;;;;5068844;28;20277;-85
2022/02/21 08:19:41;;;;;;;3.85;1.80;;;4.20;98.70;;;;;;5067231;28;20291;-85
2022/02/21 08:22:09;;;;;;;3.72;1.75;;;4.70;99.90;;;;;;5068514;28;20199;-86
2022/02/21 08:24:36;;;;;;;4.50;1.58;;;4.80;94.70;;;;;;5068455;28;20258;-86
2022/02/21 08:27:05;;;;;;;3.88;1.55;;;4.40;99.90;;;;;;5071017;28;20238;-85
2022/02/21 08:29:33;;;;;;;5.35;1.63;;;;;;;;;;5068076;28;20196;-85
2022/02/21 08:32:00;;;;;;;7.57;2.47;;;4.70;92.60;;;;;;5068204;28;20309;-86
2022/02/21 08:34:27;;;;;;;6.72;2.38;;;4.90;99.90;;;;;;5068031;28;20227;-85
2022/02/21 08:36:54;;;;;;;5.95;1.90;;;5.30;99.90;;;;;;5067933;28;20298;-85
2022/02/21 08:39:21;;;;;;;2.35;1.00;;;5.10;99.90;;;;;;5067900;28;20332;-85
2022/02/21 08:41:48;;;;;;;5.90;1.90;;;5.10;94.20;;;;;;5065489;28;20296;-85
2022/02/21 08:44:17;;;;;;;1.50;0.88;;;;;;;;;;5066218;28;20187;-85
2022/02/21 08:46:44;;;;;;;9.43;2.83;;;5.00;97.70;;;;;;5068052;28;20195;-85
2022/02/21 08:49:11;;;;;;;9.68;1.02;;;6.10;99.90;;;;;;5067483;28;20198;-86
2022/02/21 08:51:38;;;;;;;5.38;1.40;;;5.50;93.30;;;;;;5068098;28;20191;-85
2022/02/21 08:54:05;;;;;;;8.88;2.05;;;5.30;99.90;;;;;;5067750;28;20261;-85
2022/02/21 08:56:33;;;;;;;3.90;1.23;;;;;;;;;;5056090;28;20446;-85
2022/02/21 08:59:00;;;;;;;5.68;1.85;;;;;;;;;;5059270;28;20200;-85
2022/02/21 09:01:28;;;;;;;8.10;2.15;;;5.40;91.20;;;;;;5067763;28;20283;-85
2022/02/21 09:03:55;;;;;;;3.83;1.80;;;5.00;98.30;;;;;;5053706;28;20258;-85
2022/02/21 09:06:22;;;;;;;5.43;2.15;;;5.90;96.60;;;;;;5067827;28;20227;-85
2022/02/21 09:08:49;;;;;;;5.25;2.05;;;5.70;93.90;;;;;;5067918;28;20282;-84
2022/02/21 09:11:17;;;;;;;2.22;1.42;;;5.90;98.90;;;;;;5067800;28;20226;-85
2022/02/21 09:13:43;;;;;;;7.80;2.25;;;5.80;90.50;;;;;;5067536;28;20218;-85
2022/02/21 09:16:10;;;;;;;10.32;2.05;;;5.90;90.70;;;;;;5050542;28;20277;-84
2022/02/21 09:18:39;;;;;;;4.78;1.98;;;6.10;97.60;;;;;;5052791;28;20227;-86
2022/02/21 09:21:06;;;;;;;10.57;2.88;;;5.90;99.90;;;;;;5066157;28;20227;-86
2022/02/21 09:23:33;;;;;;;3.58;2.05;;;6.10;91.90;;;;;;5059527;28;20192;-85
2022/02/21 09:25:59;;;;;;;2.97;1.55;;;5.90;96.90;;;;;;5050247;28;20256;-86
2022/02/21 09:28:27;;;;;;;5.00;1.85;;;;;;;;;;5066662;28;20203;-84
2022/02/21 09:30:55;;;;;;;5.85;1.90;;;5.90;91.30;;;;;;5061275;28;20231;-86
2022/02/21 09:33:22;;;;;;;6.75;2.53;;;6.10;99.90;;;;;;5067831;28;20230;-85
2022/02/21 09:35:53;;;;;;;4.72;1.30;;;6.00;88.80;;;;;;5066162;28;20227;-85
2022/02/21 09:38:20;;;;;;;3.75;1.65;;;6.10;97.70;;;;;;5066946;28;20212;-85
2022/02/21 09:40:56;;;;;;;2.25;1.55;;;5.80;96.30;;;;;;5066892;28;20231;-86
2022/02/21 09:43:26;;;;;;;10.80;2.15;;;6.30;96.30;;;;;;5060339;28;20604;-85
2022/02/21 09:45:57;;;;;;;3.20;1.77;;;6.10;95.60;;;;;;5047808;28;20212;-85
2022/02/21 09:48:27;;;;;;;4.07;1.65;;;6.10;95.20;;;;;;5059806;28;20288;-86
2022/02/21 09:50:59;;;;;;;4.88;1.55;;;6.30;94.50;;;;;;5067605;28;20289;-85
2022/02/21 09:53:28;;;;;;;1.77;1.23;;;6.30;85.70;;;;;;5066990;28;20214;-85
2022/02/21 09:55:56;;;;;;;4.35;2.42;;;6.20;95.10;;;;;;5069949;28;20230;-85
2022/02/21 09:58:24;;;;;;;2.78;1.10;;;6.20;95.10;;;;;;5068385;28;20481;-86
2022/02/21 10:00:51;;;;;;;6.57;1.98;;;6.10;89.50;;;;;;5064999;28;20195;-85
2022/02/21 10:03:39;;;;;;;2.58;1.08;;;6.50;95.00;;;;;;5063059;28;20195;-86
2022/02/21 10:06:18;;;;;;;5.82;1.80;;;6.40;94.50;;;;;;5072132;28;20203;-85
2022/02/21 10:09:09;;;;;;;8.05;1.70;;;6.40;91.90;;;;;;5072158;28;20225;-86
2022/02/21 10:11:38;;;;;;;2.35;1.67;;;5.90;96.70;;;;;;5067528;28;20743;-86
2022/02/21 10:14:07;;;;;;;7.20;1.52;;;6.20;91.20;;;;;;5070667;28;20300;-86
2022/02/21 10:16:43;;;;;;;5.80;1.30;;;6.50;84.90;;;;;;5063614;28;20208;-86
2022/02/21 10:19:17;;;;;;;5.18;1.10;;;6.20;94.60;;;;;;5066439;28;20231;-86
2022/02/21 10:22:01;;;;;;;3.83;1.77;;;6.10;94.80;;;;;;5051600;28;20203;-85
2022/02/21 10:24:30;;;;;;;5.30;1.52;;;6.30;83.60;;;;;;5062116;28;20305;-86
2022/02/21 10:26:58;;;;;;;4.15;1.65;;;6.40;83.90;;;;;;5070576;28;20203;-85
2022/02/21 10:29:26;;;;;;;8.80;1.48;;;6.30;85.20;;;;;;5071292;28;20203;-87
2022/02/21 10:32:06;;;;;;;5.00;1.35;;;5.90;92.90;;;;;;5070685;28;20227;-87
2022/02/21 10:34:35;;;;;;;4.18;1.23;;;6.80;97.40;;;;;;5056819;28;20231;-86
2022/02/21 10:37:05;;;;;;;5.13;2.95;;;6.30;92.60;;;;;;5070670;28;20238;-86
2022/02/21 10:39:33;;;;;;;3.42;1.40;;;6.30;95.30;;;;;;5071501;28;20219;-87
2022/02/21 10:42:02;;;;;;;2.20;1.23;;;6.30;81.00;;;;;;5072221;28;20231;-85
2022/02/21 10:44:31;;;;;;;4.57;1.58;;;6.10;91.90;;;;;;5071020;28;20302;-85
2022/02/21 10:47:04;;;;;;;1.33;1.00;;;6.90;80.50;;;;;;5070784;28;20616;-86
2022/02/21 10:49:33;;;;;;;7.57;1.33;;;6.40;95.50;;;;;;5068590;28;20264;-87
2022/02/21 10:52:00;;;;;;;2.15;1.23;;;;;;;;;;5069140;28;20195;-86
2022/02/21 10:54:33;;;;;;;3.35;1.10;;;6.60;91.70;;;;;;5070470;28;20290;-85
2022/02/21 10:57:00;;;;;;;1.30;1.20;;;7.90;78.20;;;;;;5070426;28;20227;-86
2022/02/21 10:59:31;;;;;;;3.60;1.20;;;6.50;75.30;;;;;;5062555;28;20604;-86
2022/02/21 11:02:02;;;;;;;4.18;1.33;;;6.20;91.50;;;;;;5078964;28;20241;-85
2022/02/21 11:04:30;;;;;;;4.40;0.75;;;6.60;93.50;;;;;;5070131;28;20203;-86
2022/02/21 11:06:59;;;;;;;2.95;1.52;;;6.70;84.80;;;;;;5065195;28;20325;-86
2022/02/21 11:09:29;;;;;;;0.70;0.70;;;6.60;88.60;;;;;;5070107;28;20203;-86
2022/02/21 11:12:00;;;;;;;1.70;1.20;;;6.70;76.00;;;;;;5070107;28;20533;-85
2022/02/21 11:14:29;;;;;;;5.85;1.00;;;6.80;94.70;;;;;;5069640;28;20199;-86
2022/02/21 11:16:58;;;;;;;4.43;1.30;;;7.00;90.80;;;;;;5069638;28;20683;-86
2022/02/21 11:19:26;;;;;;;1.83;1.25;;;6.80;86.60;;;;;;5064447;28;20257;-86
2022/02/21 11:21:53;;;;;;;9.57;1.58;;;6.90;75.20;;;;;;5069990;28;20246;-86
2022/02/21 11:24:22;;;;;;;1.55;0.95;;;6.90;76.00;;;;;;5069966;28;20272;-86
2022/02/21 11:27:20;;;;;;;6.10;2.38;;;6.40;86.40;;;;;;5069662;28;20264;-88
2022/02/21 11:29:55;;;;;;;1.13;0.70;;;6.40;94.50;;;;;;5069895;28;20261;-87
2022/02/21 11:32:23;;;;;;;2.85;1.15;;;6.40;78.30;;;;;;5070026;28;20203;-87
2022/02/21 11:35:11;;;;;;;1.80;0.90;;;6.30;95.10;;;;;;5056986;28;20257;-86
2022/02/21 11:37:38;;;;;;;5.13;1.70;;;;;;;;;;5068535;28;20757;-86
2022/02/21 11:40:07;;;;;;;4.90;1.40;;;6.30;77.40;;;;;;5065276;28;20267;-85
2022/02/21 11:42:38;;;;;;;4.20;1.20;;;5.80;96.90;;;;;;5050258;28;20203;-87
2022/02/21 11:45:14;;;;;;;1.73;0.80;;;5.60;98.00;;;;;;5055539;28;20191;-86
2022/02/21 11:47:43;;;;;;;2.05;0.90;;;5.50;84.20;;;;;;5068968;28;20203;-86
2022/02/21 11:50:26;;;;;;;1.77;1.13;;;5.40;97.20;;;;;;5067669;28;20248;-87
2022/02/21 11:52:54;;;;;;;5.00;1.08;;;5.90;98.20;;;;;;5069912;28;20359;-87
2022/02/21 11:55:42;;;;;;;2.10;1.00;;;5.60;85.80;;;;;;5066870;28;20654;-86
2022/02/21 11:58:43;;;;;;;2.15;1.50;;;5.70;86.00;;;;;;5061629;28;20705;-85
2022/02/21 12:01:19;;;;;;;6.40;1.65;;;5.90;83.80;;;;;;5068253;28;20207;-86
2022/02/21 12:04:17;;;;;;;2.88;1.45;;;6.00;88.80;;;;;;5069582;28;20206;-86
2022/02/21 12:06:55;;;;;;;5.07;1.27;;;6.30;95.30;;;;;;5057160;28;20741;-86
2022/02/21 12:09:22;;;;;;;1.15;1.05;;;6.70;95.70;;;;;;5068447;28;20222;-86
2022/02/21 12:11:49;;;;;;;4.03;1.48;;;6.50;92.70;;;;;;5069359;28;20200;-86
2022/02/21 12:14:22;;;;;;;5.78;0.70;;;6.90;91.10;;;;;;5068977;28;20737;-86
2022/02/21 12:17:05;;;;;;;6.70;1.30;;;7.00;93.10;;;;;;5062205;28;20227;-87
2022/02/21 12:19:34;;;;;;;2.92;0.95;;;7.40;71.20;;;;;;5068979;28;20265;-86
2022/02/21 12:22:16;;;;;;;3.00;1.30;;;7.10;92.50;;;;;;5068648;28;20202;-86
2022/02/21 12:25:12;;;;;;;2.90;0.80;;;6.20;74.60;;;;;;5068723;28;20559;-86
2022/02/21 12:28:11;;;;;;;2.15;0.75;;;7.00;69.80;;;;;;5065652;28;20199;-85
2022/02/21 12:30:41;;;;;;;2.83;0.93;;;7.10;70.40;;;;;;5053934;28;20674;-87
2022/02/21 12:33:10;;;;;;;1.98;1.05;;;7.10;68.90;;;;;;5064905;28;20608;-87
2022/02/21 12:35:54;;;;;;;1.52;0.85;;;6.70;71.90;;;;;;5067986;28;20223;-85
2022/02/21 12:38:22;;;;;;;2.38;1.63;;;6.90;69.40;;;;;;5068422;28;20338;-87
2022/02/21 12:41:02;;;;;;;3.22;1.10;;;6.90;91.10;;;;;;5057904;28;20192;-87
2022/02/21 12:43:53;;;;;;;3.30;1.02;;;6.70;68.20;;;;;;5068116;28;20233;-87
2022/02/21 12:46:23;;;;;;;2.60;1.08;;;6.60;92.90;;;;;;5052344;28;20208;-86
2022/02/21 12:48:50;;;;;;;3.38;1.58;;;6.50;85.90;;;;;;5059830;28;20214;-87
2022/02/21 12:51:23;;;;;;;2.75;0.80;;;6.60;77.70;;;;;;5068026;28;20210;-86
2022/02/21 12:53:58;;;;;;;3.92;1.05;;;6.50;90.80;;;;;;5068393;28;20272;-86
2022/02/21 12:56:26;;;;;;;1.30;0.50;;;6.40;70.30;;;;;;5067476;28;20261;-87
2022/02/21 12:58:53;;;;;;;3.60;1.58;;;6.60;81.90;;;;;;5067726;28;20195;-86
2022/02/21 13:01:23;;;;;;;2.20;1.10;;;6.60;90.60;;;;;;5067302;28;20253;-87
2022/02/21 13:03:54;;;;;;;1.88;1.30;;;6.40;72.30;;;;;;5051958;28;20196;-87
2022/02/21 13:06:21;;;;;;;1.33;1.23;;;;;;;;;;5066949;28;20268;-86
2022/02/21 13:08:49;;;;;;;4.53;1.35;;;5.80;79.30;;;;;;5067768;28;20584;-88
2022/02/21 13:11:27;;;;;;;2.22;0.80;;;6.80;76.20;;;;;;5062168;28;20231;-87
2022/02/21 13:13:55;;;;;;;3.42;1.00;;;6.80;75.20;;;;;;5068073;28;20187;-86
2022/02/21 13:16:25;;;;;;;4.15;1.10;;;6.80;74.20;;;;;;5068148;28;20199;-85
2022/02/21 13:18:54;;;;;;;2.25;0.90;;;6.90;74.20;;;;;;5062990;28;20246;-87
2022/02/21 13:21:29;;;;;;;3.10;1.00;;;6.90;83.20;;;;;;5067833;28;20269;-87